createdAt,value
2022-12-04T00:04:01.451Z,17.40
2022-12-04T00:09:04.008Z,14.67
2022-12-04T00:14:07.562Z,20.50
2022-12-04T00:19:09.918Z,20.40
2022-12-04T00:24:12.452Z,19.63
2022-12-04T00:29:14.927Z,18.90
2022-12-04T00:34:17.091Z,18.37
2022-12-04T00:39:19.313Z,16.20
2022-12-04T00:44:21.427Z,16.60
2022-12-04T00:49:23.608Z,13.73
2022-12-04T00:54:25.756Z,21.53
2022-12-04T00:59:28.013Z,18.00
2022-12-04T01:04:30.252Z,16.80
2022-12-04T01:09:33.170Z,18.33
2022-12-04T01:14:35.346Z,22.93
2022-12-04T01:19:37.590Z,24.23
2022-12-04T01:24:39.732Z,16.07
2022-12-04T01:29:42.015Z,20.03
2022-12-04T01:34:44.294Z,17.30
2022-12-04T01:39:46.507Z,17.60
2022-12-04T01:45:33.676Z,18.27
2022-12-04T01:50:36.197Z,18.40
2022-12-04T01:55:38.981Z,18.90
2022-12-04T02:00:41.372Z,19.50
2022-12-04T02:05:43.626Z,15.63
2022-12-04T02:11:09.398Z,19.13
2022-12-04T02:16:51.830Z,15.27
2022-12-04T02:21:55.808Z,12.53
2022-12-04T02:27:25.059Z,15.77
2022-12-04T02:32:36.326Z,19.73
2022-12-04T02:37:41.759Z,14.60
2022-12-04T02:42:48.344Z,17.67
2022-12-04T02:47:51.875Z,13.47
2022-12-04T02:52:58.054Z,13.53
2022-12-04T02:58:05.457Z,13.87
2022-12-04T03:03:12.308Z,13.63
2022-12-04T03:08:19.043Z,14.30
2022-12-04T03:13:41.894Z,23.17
2022-12-04T03:18:50.884Z,14.87
2022-12-04T03:24:03.255Z,17.67
2022-12-04T03:29:13.418Z,16.63
2022-12-04T03:34:39.252Z,15.97
2022-12-04T03:39:50.473Z,11.80
2022-12-04T03:45:09.798Z,13.17
2022-12-04T03:50:25.078Z,13.55
2022-12-04T03:55:31.443Z,15.87
2022-12-04T04:00:37.432Z,15.90
2022-12-04T04:05:43.428Z,15.27
2022-12-04T04:10:45.912Z,15.03
2022-12-04T04:16:11.579Z,15.37
2022-12-04T04:21:33.830Z,12.37
2022-12-04T04:26:39.597Z,14.30
2022-12-04T04:31:59.521Z,8.57
2022-12-04T04:37:20.911Z,12.13
2022-12-04T04:42:26.841Z,13.40
2022-12-04T04:47:45.905Z,15.83
2022-12-04T04:52:51.572Z,9.85
2022-12-04T04:57:53.741Z,10.27
2022-12-04T05:02:55.932Z,26.00
2022-12-04T05:07:58.336Z,10.40
2022-12-04T05:13:00.569Z,15.97
2022-12-04T05:18:02.788Z,16.17
2022-12-04T05:23:04.974Z,13.63
2022-12-04T05:28:07.201Z,11.97
2022-12-04T05:33:10.466Z,15.93
2022-12-04T05:38:12.680Z,17.27
2022-12-04T05:43:14.963Z,12.80
2022-12-04T05:48:17.281Z,9.63
2022-12-04T05:53:19.578Z,13.50
2022-12-04T05:58:21.753Z,10.60
2022-12-04T06:03:24.119Z,15.63
2022-12-04T06:08:26.411Z,12.67
2022-12-04T06:13:28.675Z,16.00
2022-12-04T06:18:30.839Z,17.17
2022-12-04T06:23:32.980Z,10.00
2022-12-04T06:28:35.884Z,12.17
2022-12-04T06:33:38.249Z,16.60
2022-12-04T06:38:41.173Z,12.43
2022-12-04T06:43:43.499Z,13.13
2022-12-04T06:48:45.916Z,12.80
2022-12-04T06:53:48.426Z,11.70
2022-12-04T06:58:52.912Z,13.17
2022-12-04T07:03:56.826Z,10.50
2022-12-04T07:09:07.140Z,15.47
2022-12-04T07:14:10.412Z,10.57
2022-12-04T07:19:14.404Z,10.50
2022-12-04T07:24:17.735Z,14.23
2022-12-04T07:29:20.018Z,18.80
2022-12-04T07:34:22.160Z,13.73
2022-12-04T07:39:24.363Z,10.50
2022-12-04T07:44:26.656Z,11.77
2022-12-04T07:49:29.348Z,13.20
2022-12-04T07:54:31.607Z,8.73
2022-12-04T07:59:33.778Z,28.00
2022-12-04T08:04:37.240Z,16.33
2022-12-04T08:09:39.540Z,11.40
2022-12-04T08:14:41.678Z,13.33
2022-12-04T08:19:43.855Z,12.80
2022-12-04T08:24:46.021Z,11.90
2022-12-04T08:29:48.370Z,11.07
2022-12-04T08:34:55.702Z,8.37
2022-12-04T08:40:01.394Z,19.37
2022-12-04T08:45:06.140Z,10.73
2022-12-04T08:50:08.720Z,12.03
2022-12-04T08:55:10.912Z,12.07
2022-12-04T09:00:13.607Z,7.00
2022-12-04T09:05:15.959Z,11.30
2022-12-04T09:10:18.364Z,14.47
2022-12-04T09:15:20.611Z,11.43
2022-12-04T09:20:22.895Z,14.53
2022-12-04T09:25:25.091Z,11.13
2022-12-04T09:30:31.083Z,10.20
2022-12-04T09:35:34.316Z,11.07
2022-12-04T09:40:44.794Z,9.63
2022-12-04T09:45:51.062Z,9.63
2022-12-04T09:50:53.972Z,10.70
2022-12-04T09:55:59.935Z,13.70
2022-12-04T10:01:04.044Z,12.67
2022-12-04T10:06:16.043Z,8.60
2022-12-04T10:11:32.209Z,7.50
2022-12-04T10:16:41.178Z,8.67
2022-12-04T10:21:59.722Z,9.97
2022-12-04T10:27:09.299Z,7.70
2022-12-04T10:32:19.335Z,7.63
2022-12-04T10:37:22.916Z,8.77
2022-12-04T10:42:41.682Z,7.03
2022-12-04T10:47:46.997Z,7.57
2022-12-04T10:52:49.872Z,4.03
2022-12-04T10:57:52.192Z,6.73
2022-12-04T11:02:56.453Z,7.00
2022-12-04T11:08:00.855Z,6.57
2022-12-04T11:13:14.801Z,8.93
2022-12-04T11:18:28.908Z,6.00
2022-12-04T11:23:41.445Z,6.93
2022-12-04T11:28:53.066Z,7.63
2022-12-04T11:34:04.175Z,3.83
2022-12-04T11:39:28.002Z,5.30
2022-12-04T11:44:34.319Z,4.67
2022-12-04T11:49:42.244Z,8.83
2022-12-04T11:54:51.248Z,5.88
2022-12-04T12:00:03.981Z,3.83
2022-12-04T12:05:17.413Z,12.80
2022-12-04T12:10:25.749Z,5.50
2022-12-04T12:15:41.363Z,7.53
2022-12-04T12:20:54.308Z,8.20
2022-12-04T12:26:10.825Z,5.23
2022-12-04T12:31:38.178Z,6.93
2022-12-04T12:36:44.617Z,8.93
2022-12-04T12:42:00.466Z,8.57
2022-12-04T12:47:20.031Z,8.37
2022-12-04T12:52:43.806Z,7.43
2022-12-04T12:57:50.527Z,15.93
2022-12-04T13:03:29.055Z,17.07
2022-12-04T13:09:04.981Z,7.70
2022-12-04T13:14:07.607Z,16.00
2022-12-04T13:19:36.167Z,11.13
2022-12-04T13:24:56.823Z,12.13
2022-12-04T13:30:24.509Z,11.13
2022-12-04T13:36:17.956Z,9.00
2022-12-04T13:41:26.077Z,9.33
2022-12-04T13:46:38.501Z,11.20
2022-12-04T13:51:46.736Z,6.57
2022-12-04T13:56:51.854Z,9.30
2022-12-04T14:02:04.916Z,6.30
2022-12-04T14:07:33.467Z,6.40
2022-12-04T14:12:39.285Z,10.53
2022-12-04T14:17:44.762Z,7.77
2022-12-04T14:22:48.418Z,6.53
2022-12-04T14:27:53.944Z,7.47
2022-12-04T14:33:22.450Z,6.70
2022-12-04T14:38:25.937Z,7.63
2022-12-04T14:43:33.901Z,5.43
2022-12-04T14:48:38.905Z,7.57
2022-12-04T14:53:57.624Z,5.80
2022-12-04T14:59:06.226Z,4.65
2022-12-04T15:04:46.220Z,7.53
2022-12-04T15:10:12.205Z,3.20
2022-12-04T15:15:25.164Z,8.43
2022-12-04T15:20:33.383Z,3.10
2022-12-04T15:26:07.430Z,4.87
2022-12-04T15:31:19.709Z,6.20
2022-12-04T15:36:47.211Z,10.17
2022-12-04T15:41:50.049Z,8.50
2022-12-04T15:46:58.423Z,6.70
2022-12-04T15:52:17.032Z,5.03
2022-12-04T15:57:40.650Z,9.90
2022-12-04T16:02:43.951Z,8.07
2022-12-04T16:07:58.339Z,7.90
2022-12-04T16:13:03.191Z,6.77
2022-12-04T16:18:06.939Z,7.37
2022-12-04T16:23:09.854Z,3.17
2022-12-04T16:28:13.389Z,4.67
2022-12-04T16:33:16.085Z,6.50
2022-12-04T16:38:18.282Z,7.77
2022-12-04T16:43:20.538Z,10.03
2022-12-04T16:48:22.882Z,8.97
2022-12-04T16:53:25.157Z,7.13
2022-12-04T16:58:27.426Z,3.93
2022-12-04T17:03:37.187Z,12.83
2022-12-04T17:08:39.551Z,7.40
2022-12-04T17:13:42.189Z,8.20
2022-12-04T17:18:45.005Z,7.57
2022-12-04T17:23:47.383Z,5.17
2022-12-04T17:28:50.621Z,5.30
2022-12-04T17:33:53.066Z,7.00
2022-12-04T17:38:56.602Z,6.33
2022-12-04T17:44:00.376Z,4.43
2022-12-04T17:49:07.490Z,3.83
2022-12-04T17:54:13.067Z,6.47
2022-12-04T17:59:15.649Z,6.23
2022-12-04T18:04:19.411Z,7.70
2022-12-04T18:09:23.350Z,8.33
2022-12-04T18:14:25.818Z,7.53
2022-12-04T18:19:29.524Z,7.07
2022-12-04T18:24:31.742Z,9.90
2022-12-04T18:29:33.942Z,7.47
2022-12-04T18:34:36.210Z,5.10
2022-12-04T18:39:38.464Z,11.67
2022-12-04T18:44:42.999Z,7.70
2022-12-04T18:49:45.700Z,4.87
2022-12-04T18:54:47.918Z,9.20
2022-12-04T18:59:52.974Z,9.03
2022-12-04T19:04:55.458Z,9.90
2022-12-04T19:10:13.006Z,10.63
2022-12-04T19:15:15.288Z,3.77
2022-12-04T19:20:18.533Z,9.90
2022-12-04T19:25:20.749Z,6.70
2022-12-04T19:30:22.955Z,8.77
2022-12-04T19:35:25.173Z,7.20
2022-12-04T19:40:27.376Z,9.93
2022-12-04T19:45:29.586Z,10.00
2022-12-04T19:50:32.662Z,9.03
2022-12-04T19:55:36.676Z,5.33
2022-12-04T20:00:38.869Z,9.40
2022-12-04T20:05:41.989Z,4.60
2022-12-04T20:10:44.274Z,11.47
2022-12-04T20:15:46.498Z,7.90
2022-12-04T20:20:56.453Z,7.97
2022-12-04T20:26:05.400Z,8.97
2022-12-04T20:31:16.112Z,6.50
2022-12-04T20:36:20.124Z,6.53
2022-12-04T20:41:22.737Z,6.07
2022-12-04T20:46:31.783Z,6.67
2022-12-04T20:51:37.007Z,12.80
2022-12-04T20:56:39.318Z,6.67
2022-12-04T21:01:41.950Z,8.53
2022-12-04T21:06:44.907Z,8.50
2022-12-04T21:11:52.834Z,11.03
2022-12-04T21:16:55.013Z,5.57
2022-12-04T21:21:57.264Z,6.60
2022-12-04T21:26:59.533Z,5.83
2022-12-04T21:32:02.108Z,7.47
2022-12-04T21:37:04.482Z,9.47
2022-12-04T21:42:25.158Z,8.70
2022-12-04T21:47:28.135Z,5.60
2022-12-04T21:52:30.649Z,9.57
2022-12-04T21:57:32.757Z,6.57
2022-12-04T22:02:36.429Z,7.97
2022-12-04T22:07:38.789Z,9.23
2022-12-04T22:12:49.724Z,7.43
2022-12-04T22:17:53.309Z,12.23
2022-12-04T22:22:55.532Z,11.03
2022-12-04T22:27:58.356Z,7.03
2022-12-04T22:33:00.832Z,9.80
2022-12-04T22:38:03.041Z,10.47
2022-12-04T22:43:05.200Z,8.63
2022-12-04T22:48:07.329Z,18.10
2022-12-04T22:53:09.540Z,8.33
2022-12-04T22:58:11.644Z,9.60
2022-12-04T23:03:15.186Z,11.27
2022-12-04T23:08:17.569Z,8.23
2022-12-04T23:13:19.846Z,10.37
2022-12-04T23:18:22.013Z,8.40
2022-12-04T23:23:24.261Z,9.97
2022-12-04T23:28:26.557Z,8.40
2022-12-04T23:33:29.050Z,7.53
2022-12-04T23:38:31.555Z,8.07
2022-12-04T23:43:34.555Z,11.40
2022-12-04T23:48:40.911Z,7.37
2022-12-04T23:53:43.378Z,8.67
2022-12-04T23:58:46.840Z,7.43
